Time;durP1;ratioP1;P1;durP2;ratioP2;P2;SDS_P1;SDS_P2;PMS_P1;PMS_P2;Temp;Humidity;BMP_temperature;BMP_pressure;BME280_temperature;BME280_humidity;BME280_pressure;Samples;Min_cycle;Max_cycle;Signal;HPM_P1;HPM_P2
2021/12/25 00:01:42;;;;;;;;;52.25;43.25;;;;;;;;5135235;27;45467;-84
2021/12/25 00:04:08;;;;;;;;;50.75;42.00;;;;;;;;5135197;27;45500;-83
2021/12/25 00:06:34;;;;;;;;;42.50;38.25;;;;;;;;5134826;27;45570;-84
2021/12/25 00:08:59;;;;;;;;;52.75;43.50;;;;;;;;5134473;27;45490;-82
2021/12/25 00:11:24;;;;;;;;;44.75;39.00;;;;;;;;5116269;27;45439;-81
2021/12/25 00:13:49;;;;;;;;;52.67;42.00;;;;;;;;5116268;27;45593;-80
2021/12/25 00:16:15;;;;;;;;;43.67;38.00;;;;;;;;5116232;27;46268;-81
2021/12/25 00:18:40;;;;;;;;;42.67;38.00;;;;;;;;5116105;27;45952;-81
2021/12/25 00:21:05;;;;;;;;;39.67;34.67;;;;;;;;5116235;27;45417;-80
2021/12/25 00:23:31;;;;;;;;;41.25;37.25;;;;;;;;5115940;27;45323;-82
2021/12/25 00:26:27;;;;;;;;;38.00;35.33;;;;;;;;5115822;27;48862;-81
2021/12/25 00:28:55;;;;;;;;;46.00;40.00;;;;;;;;5133171;27;45475;-84
2021/12/25 00:36:11;;;;;;;;;33.33;31.67;;;;;;;;5134554;27;45409;-84
2021/12/25 00:38:37;;;;;;;;;34.25;33.00;;;;;;;;5134137;27;45476;-81
2021/12/25 00:41:06;;;;;;;;;30.33;29.33;;;;;;;;5116115;27;45444;-81
2021/12/25 00:43:31;;;;;;;;;27.25;25.25;;;;;;;;5135039;27;45513;-84
2021/12/25 00:45:57;;;;;;;;;29.75;29.50;;;;;;;;5134133;27;46233;-81
2021/12/25 00:48:22;;;;;;;;;32.00;29.00;;;;;;;;5115768;27;45847;-84
2021/12/25 00:50:47;;;;;;;;;37.67;34.33;;;;;;;;5134576;27;45530;-80
2021/12/25 00:53:12;;;;;;;;;29.00;28.00;;;;;;;;5114878;27;45395;-81
2021/12/25 00:55:37;;;;;;;;;32.67;29.00;;;;;;;;5134341;27;45603;-82
2021/12/25 00:58:03;;;;;;;;;31.67;30.00;;;;;;;;5115722;27;45442;-84
2021/12/25 01:00:28;;;;;;;;;33.00;33.00;;;;;;;;5136096;27;45313;-85
2021/12/25 01:02:53;;;;;;;;;33.33;32.00;;;;;;;;5119212;27;45585;-83
2021/12/25 01:05:19;;;;;;;;;37.25;33.25;;;;;;;;5119198;27;48339;-80
2021/12/25 01:07:44;;;;;;;;;32.00;31.33;;;;;;;;5137683;27;45486;-81
2021/12/25 01:10:14;;;;;;;;;34.50;32.50;;;;;;;;5137499;27;45348;-82
2021/12/25 01:13:06;;;;;;;;;29.75;26.25;;;;;;;;5119128;27;45511;-84
2021/12/25 01:15:41;;;;;;;;;30.75;26.25;;;;;;;;5119217;27;47200;-81
2021/12/25 01:25:50;;;;;;;;;25.33;25.33;;;;;;;;5137519;27;45456;-81
2021/12/25 01:28:55;;;;;;;;;24.75;24.00;;;;;;;;5137357;27;45452;-84
2021/12/25 01:31:18;;;;;;;;;27.50;24.00;;;;;;;;5137318;27;45376;-81
2021/12/25 01:49:23;;;;;;;;;30.00;27.00;;;;;;;;5137554;27;45891;-84
2021/12/25 01:51:48;;;;;;;;;27.33;25.00;;;;;;;;5137034;27;45311;-82
2021/12/25 01:54:13;;;;;;;;;26.67;25.00;;;;;;;;5136610;27;45301;-85
2021/12/25 01:56:38;;;;;;;;;29.67;26.67;;;;;;;;5136908;27;45494;-81
2021/12/25 01:59:04;;;;;;;;;25.33;22.33;;;;;;;;5118566;27;45344;-84
2021/12/25 02:01:29;;;;;;;;;24.33;23.67;;;;;;;;5137069;27;45578;-82
2021/12/25 02:03:54;;;;;;;;;22.33;18.67;;;;;;;;5137144;27;45694;-85
2021/12/25 02:06:19;;;;;;;;;25.00;23.00;;;;;;;;5118240;27;46412;-84
2021/12/25 02:08:44;;;;;;;;;24.00;22.33;;;;;;;;5117604;27;45480;-81
2021/12/25 02:11:10;;;;;;;;;24.33;24.33;;;;;;;;5117956;27;45375;-81
2021/12/25 02:13:36;;;;;;;;;21.00;19.00;;;;;;;;5118400;27;45627;-82
2021/12/25 02:16:06;;;;;;;;;20.25;18.25;;;;;;;;5136661;27;45403;-80
2021/12/25 02:18:54;;;;;;;;;21.75;19.00;;;;;;;;5118218;27;45938;-80
2021/12/25 02:21:22;;;;;;;;;24.00;20.50;;;;;;;;5136556;27;45471;-85
2021/12/25 02:23:49;;;;;;;;;25.50;23.25;;;;;;;;5136309;27;45579;-85
2021/12/25 02:26:16;;;;;;;;;24.25;23.00;;;;;;;;5136526;27;45234;-83
2021/12/25 02:28:41;;;;;;;;;19.25;18.75;;;;;;;;5136584;27;45487;-84
2021/12/25 02:31:09;;;;;;;;;21.67;19.00;;;;;;;;5117836;27;45360;-82
2021/12/25 02:33:34;;;;;;;;;23.25;20.25;;;;;;;;5118006;27;45568;-85
2021/12/25 02:35:59;;;;;;;;;23.00;22.00;;;;;;;;5117504;27;48551;-84
2021/12/25 02:38:25;;;;;;;;;22.00;19.75;;;;;;;;5136082;27;45375;-84
2021/12/25 02:40:51;;;;;;;;;19.50;19.50;;;;;;;;5136890;27;45648;-80
2021/12/25 02:43:16;;;;;;;;;21.00;18.50;;;;;;;;5136238;27;45544;-80
2021/12/25 02:45:42;;;;;;;;;22.50;21.00;;;;;;;;5136316;27;46304;-81
2021/12/25 02:48:09;;;;;;;;;24.00;22.00;;;;;;;;5136167;27;45304;-83
2021/12/25 02:50:35;;;;;;;;;26.00;22.50;;;;;;;;5136664;27;45747;-84
2021/12/25 02:53:01;;;;;;;;;25.00;23.25;;;;;;;;5116600;27;45342;-84
2021/12/25 02:55:27;;;;;;;;;23.50;20.75;;;;;;;;5117362;27;47507;-81
2021/12/25 02:57:53;;;;;;;;;23.25;22.75;;;;;;;;5117305;27;46036;-82
2021/12/25 03:00:19;;;;;;;;;20.00;19.25;;;;;;;;5117386;27;45387;-81
2021/12/25 03:02:45;;;;;;;;;26.25;23.50;;;;;;;;5135713;27;45548;-84
2021/12/25 03:05:10;;;;;;;;;25.33;24.33;;;;;;;;5116950;27;47878;-85
2021/12/25 03:07:35;;;;;;;;;24.50;23.50;;;;;;;;5135943;27;45355;-84
2021/12/25 03:10:00;;;;;;;;;28.00;25.67;;;;;;;;5116743;27;45805;-84
2021/12/25 03:12:34;;;;;;;;;23.00;23.00;;;;;;;;5117653;27;45452;-80
2021/12/25 03:15:06;;;;;;;;;24.00;23.25;;;;;;;;5135692;27;45372;-83
2021/12/25 03:17:33;;;;;;;;;29.25;25.50;;;;;;;;5136294;27;45639;-85
2021/12/25 03:19:58;;;;;;;;;21.50;19.75;;;;;;;;5116852;27;45409;-80
2021/12/25 03:22:23;;;;;;;;;24.50;23.50;;;;;;;;5134564;27;45343;-81
2021/12/25 03:24:49;;;;;;;;;27.33;22.67;;;;;;;;5135248;27;45371;-84
2021/12/25 03:27:14;;;;;;;;;23.00;21.33;;;;;;;;5135064;27;45447;-81
2021/12/25 03:29:40;;;;;;;;;25.50;23.50;;;;;;;;5116947;27;45451;-81
2021/12/25 03:32:06;;;;;;;;;25.00;23.50;;;;;;;;5135621;27;45524;-81
2021/12/25 03:34:31;;;;;;;;;23.75;22.75;;;;;;;;5116428;27;47223;-83
2021/12/25 03:36:56;;;;;;;;;28.67;27.33;;;;;;;;5116600;27;45511;-82
2021/12/25 03:39:21;;;;;;;;;24.67;23.67;;;;;;;;5135608;27;45645;-80
2021/12/25 03:41:46;;;;;;;;;23.67;22.33;;;;;;;;5135250;27;45484;-85
2021/12/25 03:44:12;;;;;;;;;26.00;23.33;;;;;;;;5135386;27;46350;-81
2021/12/25 03:46:39;;;;;;;;;26.50;22.00;;;;;;;;5135319;27;45361;-85
2021/12/25 03:49:12;;;;;;;;;23.50;21.50;;;;;;;;5116809;27;45462;-81
2021/12/25 03:59:58;;;;;;;;;25.50;24.25;;;;;;;;5135233;27;45315;-84
2021/12/25 04:02:30;;;;;;;;;23.25;19.25;;;;;;;;5135496;27;45458;-81
2021/12/25 04:04:57;;;;;;;;;26.50;24.25;;;;;;;;5135045;27;45368;-84
2021/12/25 04:09:48;;;;;;;;;28.00;25.00;;;;;;;;5134830;27;45463;-82
2021/12/25 04:12:13;;;;;;;;;23.67;22.33;;;;;;;;5134802;27;45598;-85
2021/12/25 04:14:39;;;;;;;;;26.75;26.00;;;;;;;;5115996;27;48076;-81
2021/12/25 04:17:05;;;;;;;;;25.00;23.75;;;;;;;;5134928;27;45266;-84
2021/12/25 04:19:31;;;;;;;;;24.50;24.00;;;;;;;;5134953;27;45495;-81
2021/12/25 04:22:10;;;;;;;;;30.50;27.25;;;;;;;;5116271;27;45555;-85
2021/12/25 04:24:39;;;;;;;;;23.75;23.75;;;;;;;;5115648;27;48308;-85
2021/12/25 04:27:08;;;;;;;;;27.25;24.00;;;;;;;;5116492;27;45885;-81
2021/12/25 04:30:02;;;;;;;;;25.75;23.75;;;;;;;;5134781;27;45413;-82
2021/12/25 05:01:48;;;;;;;;;27.25;23.25;;;;;;;;5137914;27;45379;-85
2021/12/25 05:04:29;;;;;;;;;25.75;24.25;;;;;;;;5119388;27;45363;-85
2021/12/25 05:06:54;;;;;;;;;28.75;27.50;;;;;;;;5137751;27;45306;-85
2021/12/25 05:09:20;;;;;;;;;28.00;27.00;;;;;;;;5118582;27;45971;-82
2021/12/25 05:11:45;;;;;;;;;25.33;24.33;;;;;;;;5138137;27;45587;-83
2021/12/25 05:14:10;;;;;;;;;28.00;27.33;;;;;;;;5119099;27;45553;-81
2021/12/25 05:16:35;;;;;;;;;25.67;25.67;;;;;;;;5137762;27;45417;-85
2021/12/25 05:19:01;;;;;;;;;25.00;23.67;;;;;;;;5137621;27;45690;-82
2021/12/25 05:21:26;;;;;;;;;24.00;23.25;;;;;;;;5137546;27;45409;-83
2021/12/25 05:23:52;;;;;;;;;24.25;21.25;;;;;;;;5118684;27;45376;-86
2021/12/25 05:26:17;;;;;;;;;25.25;24.00;;;;;;;;5137302;27;46024;-85
2021/12/25 05:28:45;;;;;;;;;29.67;26.33;;;;;;;;5118925;27;45568;-86
2021/12/25 05:31:11;;;;;;;;;23.75;22.25;;;;;;;;5137668;27;45252;-81
2021/12/25 05:33:37;;;;;;;;;27.75;25.50;;;;;;;;5118529;27;45370;-83
2021/12/25 05:36:04;;;;;;;;;24.75;22.75;;;;;;;;5137432;27;45299;-80
2021/12/25 05:38:29;;;;;;;;;26.50;24.50;;;;;;;;5137017;27;45610;-85
2021/12/25 05:40:54;;;;;;;;;26.67;21.67;;;;;;;;5137707;27;45537;-81
2021/12/25 05:43:20;;;;;;;;;24.00;23.50;;;;;;;;5118469;27;45343;-83
2021/12/25 05:45:45;;;;;;;;;31.00;26.00;;;;;;;;5117736;27;48113;-85
2021/12/25 05:48:11;;;;;;;;;27.25;24.75;;;;;;;;5118382;27;45421;-86
2021/12/25 05:50:36;;;;;;;;;23.25;21.00;;;;;;;;5118278;27;45406;-85
2021/12/25 05:53:02;;;;;;;;;30.00;26.00;;;;;;;;5136780;27;45567;-84
2021/12/25 05:55:27;;;;;;;;;22.75;22.75;;;;;;;;5118507;27;47357;-86
2021/12/25 05:57:53;;;;;;;;;24.00;22.33;;;;;;;;5118392;27;45574;-82
2021/12/25 06:00:18;;;;;;;;;26.00;23.50;;;;;;;;5118427;27;45420;-85
2021/12/25 06:02:44;;;;;;;;;23.00;20.75;;;;;;;;5136934;27;45527;-81
2021/12/25 06:05:10;;;;;;;;;28.00;21.75;;;;;;;;5117996;27;47077;-84
2021/12/25 06:07:35;;;;;;;;;23.67;22.00;;;;;;;;5136529;27;45285;-85
2021/12/25 06:10:02;;;;;;;;;25.67;23.67;;;;;;;;5137073;27;45586;-84
2021/12/25 06:12:28;;;;;;;;;23.25;22.50;;;;;;;;5136996;27;45322;-84
2021/12/25 06:14:54;;;;;;;;;26.33;22.67;;;;;;;;5118126;27;47470;-81
2021/12/25 06:17:19;;;;;;;;;25.50;24.25;;;;;;;;5118202;27;45510;-82
2021/12/25 06:19:45;;;;;;;;;26.00;24.50;;;;;;;;5118150;27;45541;-81
2021/12/25 06:22:10;;;;;;;;;27.67;25.33;;;;;;;;5136435;27;45344;-82
2021/12/25 06:24:35;;;;;;;;;28.67;28.00;;;;;;;;5136189;27;46692;-85
2021/12/25 06:27:01;;;;;;;;;32.00;27.75;;;;;;;;5136595;27;45403;-82
2021/12/25 06:29:26;;;;;;;;;28.33;25.67;;;;;;;;5118200;27;45308;-85
2021/12/25 06:31:52;;;;;;;;;34.67;28.00;;;;;;;;5136801;27;45392;-85
2021/12/25 06:34:18;;;;;;;;;29.25;27.00;;;;;;;;5136278;27;46056;-84
2021/12/25 06:36:43;;;;;;;;;31.25;29.25;;;;;;;;5136476;27;45369;-84
2021/12/25 06:39:13;;;;;;;;;38.67;32.67;;;;;;;;5117630;27;45409;-85
2021/12/25 06:41:39;;;;;;;;;31.25;29.75;;;;;;;;5136435;27;45303;-81
2021/12/25 06:44:04;;;;;;;;;30.67;29.67;;;;;;;;5136415;27;45462;-86
2021/12/25 06:46:29;;;;;;;;;31.75;28.50;;;;;;;;5136353;27;45457;-82
2021/12/25 06:48:55;;;;;;;;;31.33;28.33;;;;;;;;5136471;27;45299;-85
2021/12/25 06:51:20;;;;;;;;;32.25;30.50;;;;;;;;5117714;27;45362;-85
2021/12/25 06:53:46;;;;;;;;;25.33;25.00;;;;;;;;5116881;27;48004;-81
2021/12/25 06:56:11;;;;;;;;;32.75;29.00;;;;;;;;5117201;27;46176;-82
2021/12/25 06:58:37;;;;;;;;;26.00;26.00;;;;;;;;5117378;27;45376;-81
2021/12/25 07:01:02;;;;;;;;;25.75;23.25;;;;;;;;5117477;27;45313;-85
2021/12/25 07:03:27;;;;;;;;;29.00;24.00;;;;;;;;5117028;27;46981;-83
2021/12/25 07:05:52;;;;;;;;;23.00;21.00;;;;;;;;5117307;27;45574;-84
2021/12/25 07:08:18;;;;;;;;;27.33;24.00;;;;;;;;5135814;27;45611;-86
2021/12/25 07:10:43;;;;;;;;;29.00;26.25;;;;;;;;5117381;27;45580;-82
2021/12/25 07:13:15;;;;;;;;;30.33;25.00;;;;;;;;5135493;27;46729;-85
2021/12/25 07:15:40;;;;;;;;;26.25;25.25;;;;;;;;5117038;27;45965;-86
2021/12/25 07:18:06;;;;;;;;;27.00;22.00;;;;;;;;5135666;27;45483;-82
2021/12/25 07:20:31;;;;;;;;;26.33;23.67;;;;;;;;5135907;27;45329;-83
2021/12/25 07:22:56;;;;;;;;;26.67;25.33;;;;;;;;5116512;27;48326;-85
2021/12/25 07:25:22;;;;;;;;;23.67;21.67;;;;;;;;5117084;27;45777;-82
2021/12/25 07:27:47;;;;;;;;;24.50;22.75;;;;;;;;5136027;27;45574;-85
2021/12/25 07:30:13;;;;;;;;;30.67;28.67;;;;;;;;5135838;27;45407;-84
2021/12/25 07:32:38;;;;;;;;;28.33;26.00;;;;;;;;5135331;27;45467;-81
2021/12/25 07:35:03;;;;;;;;;32.00;30.33;;;;;;;;5117001;27;45854;-84
2021/12/25 07:37:29;;;;;;;;;30.25;28.25;;;;;;;;5116155;27;45456;-83
2021/12/25 07:39:54;;;;;;;;;32.67;30.67;;;;;;;;5116589;27;45557;-81
2021/12/25 07:42:19;;;;;;;;;34.00;31.67;;;;;;;;5135052;27;45356;-85
2021/12/25 07:44:45;;;;;;;;;37.67;34.00;;;;;;;;5116797;27;45352;-84
2021/12/25 07:47:11;;;;;;;;;35.50;32.00;;;;;;;;5135365;27;45495;-82
2021/12/25 07:49:37;;;;;;;;;33.50;30.00;;;;;;;;5116787;27;45266;-83
2021/12/25 07:52:03;;;;;;;;;38.75;34.50;;;;;;;;5116377;27;46797;-81
2021/12/25 07:54:28;;;;;;;;;32.00;30.75;;;;;;;;5116398;27;45478;-84
2021/12/25 07:56:54;;;;;;;;;36.00;33.00;;;;;;;;5135053;27;45282;-81
2021/12/25 07:59:20;;;;;;;;;36.75;33.25;;;;;;;;5116526;27;45409;-83
2021/12/25 08:01:45;;;;;;;;;36.75;33.75;;;;;;;;5134930;27;45377;-84
2021/12/25 08:04:10;;;;;;;;;31.00;28.00;;;;;;;;5116367;27;45426;-81
2021/12/25 08:06:35;;;;;;;;;31.33;28.00;;;;;;;;5135250;27;45507;-84
2021/12/25 08:09:03;;;;;;;;;30.33;28.33;;;;;;;;5137027;27;45356;-85
2021/12/25 08:11:28;;;;;;;;;27.50;25.00;;;;;;;;5123309;27;47019;-86
2021/12/25 08:13:53;;;;;;;;;24.00;22.00;;;;;;;;5123162;27;45863;-81
2021/12/25 08:16:18;;;;;;;;;25.75;24.75;;;;;;;;5141756;27;45801;-80
2021/12/25 08:18:44;;;;;;;;;21.67;20.00;;;;;;;;5142071;27;45404;-81
2021/12/25 08:21:09;;;;;;;;;24.67;23.33;;;;;;;;5123042;27;48419;-85
2021/12/25 08:23:34;;;;;;;;;22.67;22.00;;;;;;;;5141408;27;45654;-84
2021/12/25 08:26:00;;;;;;;;;22.00;21.00;;;;;;;;5123219;27;45415;-85
2021/12/25 08:28:25;;;;;;;;;31.25;26.25;;;;;;;;5141890;27;45529;-85
2021/12/25 08:30:51;;;;;;;;;26.67;25.33;;;;;;;;5141363;27;46887;-84
2021/12/25 08:33:16;;;;;;;;;28.33;26.00;;;;;;;;5141429;27;45560;-84
2021/12/25 08:35:44;;;;;;;;;26.50;26.00;;;;;;;;5122918;27;45491;-83
2021/12/25 08:38:11;;;;;;;;;26.25;25.00;;;;;;;;5141437;27;45555;-85
2021/12/25 08:40:37;;;;;;;;;22.00;20.00;;;;;;;;5141579;27;46286;-85
2021/12/25 08:43:04;;;;;;;;;24.00;21.50;;;;;;;;5142188;27;45598;-83
2021/12/25 08:46:00;;;;;;;;;26.50;25.75;;;;;;;;5141753;27;45382;-83
2021/12/25 08:48:26;;;;;;;;;28.50;26.25;;;;;;;;5141606;27;45240;-85
2021/12/25 08:50:55;;;;;;;;;27.00;25.00;;;;;;;;5141360;27;45431;-85
2021/12/25 08:53:21;;;;;;;;;28.50;26.75;;;;;;;;5118634;27;45392;-84
2021/12/25 08:55:47;;;;;;;;;25.75;25.25;;;;;;;;5119236;27;45414;-84
2021/12/25 08:58:13;;;;;;;;;28.75;26.75;;;;;;;;5119087;27;45606;-81
2021/12/25 09:00:38;;;;;;;;;32.75;30.00;;;;;;;;5119116;27;45704;-85
2021/12/25 09:03:05;;;;;;;;;29.25;27.00;;;;;;;;5119028;27;45506;-82
2021/12/25 09:05:32;;;;;;;;;35.00;28.67;;;;;;;;5120950;27;45288;-84
2021/12/25 09:07:57;;;;;;;;;34.25;31.75;;;;;;;;5119011;27;45510;-81
2021/12/25 09:10:23;;;;;;;;;29.67;27.00;;;;;;;;5118901;27;48060;-85
2021/12/25 09:12:49;;;;;;;;;30.50;27.50;;;;;;;;5120361;27;45258;-82
2021/12/25 09:15:15;;;;;;;;;30.25;28.00;;;;;;;;5119267;27;45677;-81
2021/12/25 09:17:42;;;;;;;;;37.75;33.50;;;;;;;;5120394;27;45534;-84
2021/12/25 09:20:09;;;;;;;;;39.00;35.75;;;;;;;;5118685;27;46718;-81
2021/12/25 09:22:34;;;;;;;;;35.50;33.00;;;;;;;;5114571;27;46093;-83
2021/12/25 09:24:59;;;;;;;;;27.33;26.67;;;;;;;;5116877;27;45602;-84
2021/12/25 09:27:24;;;;;;;;;32.00;29.00;;;;;;;;5116729;27;45330;-81
2021/12/25 09:29:49;;;;;;;;;30.00;27.33;;;;;;;;5115598;27;46428;-82
2021/12/25 09:32:15;;;;;;;;;32.00;28.67;;;;;;;;5116585;27;45491;-83
2021/12/25 09:34:40;;;;;;;;;32.67;28.33;;;;;;;;5115296;27;45546;-85
2021/12/25 09:37:06;;;;;;;;;26.33;25.67;;;;;;;;5115579;27;45252;-81
2021/12/25 09:39:31;;;;;;;;;31.50;27.50;;;;;;;;5114515;27;46414;-85
2021/12/25 09:41:57;;;;;;;;;34.75;30.75;;;;;;;;5115071;27;45538;-85
2021/12/25 09:44:22;;;;;;;;;34.00;32.33;;;;;;;;5114914;27;45283;-81
2021/12/25 09:46:47;;;;;;;;;34.33;32.33;;;;;;;;5115070;27;45588;-81
2021/12/25 09:49:12;;;;;;;;;33.67;32.67;;;;;;;;5114830;27;47211;-82
2021/12/25 09:51:38;;;;;;;;;37.00;31.67;;;;;;;;5116365;27;45278;-83
2021/12/25 09:54:08;;;;;;;;;31.75;30.75;;;;;;;;5114492;27;45440;-82
2021/12/25 09:56:35;;;;;;;;;35.25;32.25;;;;;;;;5115962;27;45641;-84
2021/12/25 09:59:01;;;;;;;;;32.25;28.50;;;;;;;;5116145;27;48305;-83
2021/12/25 10:01:47;;;;;;;;;29.25;27.75;;;;;;;;5114598;27;45778;-83
2021/12/25 10:04:28;;;;;;;;;28.75;27.50;;;;;;;;5114772;27;45258;-84
2021/12/25 10:06:53;;;;;;;;;35.75;31.75;;;;;;;;5116429;27;45445;-82
2021/12/25 10:09:20;;;;;;;;;31.67;30.00;;;;;;;;5114325;27;47414;-82
2021/12/25 10:12:15;;;;;;;;;32.75;30.75;;;;;;;;5114779;27;45463;-84
2021/12/25 10:14:41;;;;;;;;;25.25;24.00;;;;;;;;5106818;27;45579;-80
2021/12/25 10:17:13;;;;;;;;;24.75;24.25;;;;;;;;5115980;27;45269;-82
2021/12/25 10:19:38;;;;;;;;;23.00;22.25;;;;;;;;5116122;27;45386;-84
2021/12/25 10:22:05;;;;;;;;;27.00;23.67;;;;;;;;5115602;27;45274;-82
2021/12/25 10:24:30;;;;;;;;;27.00;25.25;;;;;;;;5114296;27;45301;-85
2021/12/25 10:27:09;;;;;;;;;35.25;27.50;;;;;;;;5114658;27;45321;-85
2021/12/25 10:29:34;;;;;;;;;22.00;21.25;;;;;;;;5114370;27;47395;-83
2021/12/25 10:32:12;;;;;;;;;28.67;23.67;;;;;;;;5115416;27;45312;-82
2021/12/25 10:34:37;;;;;;;;;26.25;24.00;;;;;;;;5114535;27;45333;-82
2021/12/25 10:37:06;;;;;;;;;23.00;22.00;;;;;;;;5114428;27;45370;-82
2021/12/25 10:39:32;;;;;;;;;28.25;25.75;;;;;;;;5115304;27;46383;-85
2021/12/25 10:41:58;;;;;;;;;24.00;21.00;;;;;;;;5113872;27;46300;-84
2021/12/25 10:44:28;;;;;;;;;26.50;25.00;;;;;;;;5115761;27;45435;-81
2021/12/25 10:46:53;;;;;;;;;23.25;22.25;;;;;;;;5115610;27;45560;-81
2021/12/25 10:49:18;;;;;;;;;22.33;19.67;;;;;;;;5114184;27;46880;-84
2021/12/25 10:51:44;;;;;;;;;23.50;20.75;;;;;;;;5114404;27;45950;-85
2021/12/25 10:54:12;;;;;;;;;22.00;21.25;;;;;;;;5133775;27;45398;-82
2021/12/25 10:56:38;;;;;;;;;23.25;22.75;;;;;;;;5136210;27;45345;-82
2021/12/25 10:59:10;;;;;;;;;29.00;24.25;;;;;;;;5117350;27;48449;-81
2021/12/25 11:01:40;;;;;;;;;26.25;23.50;;;;;;;;5117374;27;45830;-85
2021/12/25 11:04:06;;;;;;;;;34.00;32.50;;;;;;;;5117478;27;45337;-82
2021/12/25 11:06:40;;;;;;;;;33.25;28.50;;;;;;;;5136095;27;45431;-81
2021/12/25 11:09:07;;;;;;;;;24.75;22.75;;;;;;;;5116685;27;48111;-81
2021/12/25 11:11:32;;;;;;;;;23.50;20.75;;;;;;;;5116959;27;46009;-81
2021/12/25 11:13:57;;;;;;;;;24.67;23.67;;;;;;;;5136128;27;45522;-82
2021/12/25 11:18:50;;;;;;;;;24.25;22.75;;;;;;;;5135338;27;47488;-82
2021/12/25 11:21:15;;;;;;;;;26.75;23.25;;;;;;;;5117121;27;45964;-86
2021/12/25 11:23:41;;;;;;;;;26.67;25.00;;;;;;;;5135891;27;45528;-82
2021/12/25 11:26:06;;;;;;;;;27.50;24.00;;;;;;;;5135696;27;45586;-81
2021/12/25 11:28:32;;;;;;;;;23.75;23.00;;;;;;;;5135378;27;45472;-82
2021/12/25 11:30:57;;;;;;;;;28.75;26.75;;;;;;;;5135594;27;45483;-82
2021/12/25 11:33:22;;;;;;;;;27.00;25.00;;;;;;;;5116965;27;45405;-84
2021/12/25 11:35:47;;;;;;;;;27.33;24.33;;;;;;;;5135402;27;45662;-81
2021/12/25 11:38:13;;;;;;;;;28.33;27.33;;;;;;;;5116534;27;47898;-82
2021/12/25 11:40:44;;;;;;;;;27.25;25.75;;;;;;;;5135230;27;45406;-85
2021/12/25 11:43:09;;;;;;;;;32.00;30.75;;;;;;;;5116259;27;45357;-86
2021/12/25 11:45:37;;;;;;;;;29.67;28.00;;;;;;;;5116626;27;45330;-82
2021/12/25 11:48:19;;;;;;;;;26.75;25.25;;;;;;;;5116401;27;46114;-82
2021/12/25 11:50:47;;;;;;;;;26.50;25.50;;;;;;;;5135050;27;45868;-85
2021/12/25 11:53:40;;;;;;;;;29.00;25.75;;;;;;;;5134824;27;45317;-84
2021/12/25 11:58:39;;;;;;;;;25.25;23.25;;;;;;;;5135050;27;45875;-86
2021/12/25 12:01:18;;;;;;;;;28.75;25.50;;;;;;;;5116303;27;45699;-83
2021/12/25 12:03:46;;;;;;;;;27.50;26.25;;;;;;;;5135290;27;45350;-85
2021/12/25 12:06:14;;;;;;;;;26.75;26.00;;;;;;;;5116518;27;45792;-84
2021/12/25 12:08:55;;;;;;;;;25.50;22.75;;;;;;;;5134680;27;45329;-82
2021/12/25 12:11:25;;;;;;;;;22.25;21.50;;;;;;;;5116335;27;46193;-85
2021/12/25 12:14:19;;;;;;;;;26.75;24.75;;;;;;;;5116238;27;45418;-81
2021/12/25 12:16:46;;;;;;;;;24.00;22.75;;;;;;;;5112480;27;45420;-85
2021/12/25 12:19:34;;;;;;;;;23.50;23.00;;;;;;;;5115985;27;47313;-84
2021/12/25 12:22:30;;;;;;;;;26.50;24.00;;;;;;;;5135396;27;45532;-85
2021/12/25 12:27:50;;;;;;;;;28.25;27.00;;;;;;;;5134926;27;45373;-82
2021/12/25 12:30:31;;;;;;;;;30.00;27.25;;;;;;;;5102553;27;48125;-84
2021/12/25 12:32:56;;;;;;;;;29.75;27.00;;;;;;;;5115891;27;46017;-81
2021/12/25 12:35:38;;;;;;;;;27.75;27.00;;;;;;;;5134594;27;45440;-84
2021/12/25 12:38:22;;;;;;;;;24.25;22.00;;;;;;;;5115760;27;45424;-81
2021/12/25 12:41:07;;;;;;;;;29.75;28.75;;;;;;;;5116010;27;47131;-85
2021/12/25 12:43:51;;;;;;;;;27.25;25.50;;;;;;;;5115866;27;45903;-86
2021/12/25 12:46:17;;;;;;;;;29.25;28.25;;;;;;;;5135068;27;45313;-81
2021/12/25 12:49:00;;;;;;;;;24.67;23.33;;;;;;;;5134797;27;45483;-81
2021/12/25 12:51:25;;;;;;;;;26.25;24.25;;;;;;;;5134353;27;45598;-83
2021/12/25 12:53:51;;;;;;;;;27.67;25.33;;;;;;;;5134112;27;45452;-81
2021/12/25 12:56:21;;;;;;;;;29.50;27.75;;;;;;;;5137657;27;45566;-82
2021/12/25 12:58:50;;;;;;;;;27.50;25.00;;;;;;;;5138245;27;45268;-81
2021/12/25 13:01:16;;;;;;;;;32.50;30.25;;;;;;;;5138357;27;47004;-81
2021/12/25 13:03:41;;;;;;;;;30.00;26.33;;;;;;;;5119233;27;45431;-85
2021/12/25 13:06:12;;;;;;;;;28.33;27.00;;;;;;;;5119067;27;45316;-81
2021/12/25 13:08:39;;;;;;;;;25.00;22.75;;;;;;;;5137722;27;45590;-85
2021/12/25 13:11:11;;;;;;;;;24.00;22.75;;;;;;;;5118914;27;46555;-80
2021/12/25 13:13:40;;;;;;;;;25.75;24.50;;;;;;;;5137797;27;45289;-81
2021/12/25 13:16:07;;;;;;;;;27.25;25.00;;;;;;;;5119169;27;45506;-81
2021/12/25 13:18:34;;;;;;;;;19.00;19.00;;;;;;;;5137765;27;45460;-81
2021/12/25 13:21:00;;;;;;;;;25.75;23.50;;;;;;;;5118446;27;48882;-81
2021/12/25 13:23:36;;;;;;;;;23.50;22.75;;;;;;;;5137163;27;45403;-83
2021/12/25 13:26:04;;;;;;;;;27.00;23.25;;;;;;;;5137775;27;45461;-80
2021/12/25 13:28:30;;;;;;;;;25.00;24.00;;;;;;;;5119034;27;45406;-82
2021/12/25 13:31:01;;;;;;;;;22.25;21.00;;;;;;;;5137133;27;47518;-85
2021/12/25 13:33:29;;;;;;;;;34.25;33.00;;;;;;;;5118443;27;45539;-82
2021/12/25 13:35:59;;;;;;;;;38.00;33.75;;;;;;;;5137376;27;45361;-82
2021/12/25 13:38:24;;;;;;;;;40.50;35.50;;;;;;;;5137324;27;45774;-85
2021/12/25 13:40:51;;;;;;;;;42.33;36.33;;;;;;;;5136780;27;47823;-81
2021/12/25 13:43:16;;;;;;;;;40.00;35.00;;;;;;;;5137137;27;45301;-81
2021/12/25 13:45:42;;;;;;;;;14.50;10.00;;;;;;;;5137843;27;45242;-81
2021/12/25 13:48:07;;;;;;;;;34.50;32.50;;;;;;;;5137265;27;45271;-81
2021/12/25 13:50:33;;;;;;;;;32.00;31.00;;;;;;;;5137034;27;46394;-81
2021/12/25 13:52:59;;;;;;;;;34.50;33.00;;;;;;;;5117963;27;45908;-82
2021/12/25 13:55:32;;;;;;;;;36.25;33.50;;;;;;;;5118545;27;45396;-80
2021/12/25 13:57:59;;;;;;;;;35.25;31.25;;;;;;;;5118447;27;45371;-85
2021/12/25 14:00:29;;;;;;;;;31.50;28.75;;;;;;;;5118051;27;47653;-81
2021/12/25 14:02:57;;;;;;;;;34.75;32.50;;;;;;;;5118240;27;45676;-85
2021/12/25 14:05:24;;;;;;;;;35.25;33.00;;;;;;;;5118378;27;45409;-81
2021/12/25 14:07:49;;;;;;;;;36.50;34.00;;;;;;;;5135809;27;45364;-82
2021/12/25 14:10:16;;;;;;;;;37.75;34.25;;;;;;;;5117931;27;47218;-82
2021/12/25 14:12:50;;;;;;;;;42.25;36.75;;;;;;;;5136916;27;45441;-82
2021/12/25 14:15:17;;;;;;;;;34.25;33.00;;;;;;;;5118306;27;45407;-81
2021/12/25 14:17:43;;;;;;;;;34.50;33.00;;;;;;;;5118171;27;45406;-81
2021/12/25 14:20:16;;;;;;;;;44.00;39.00;;;;;;;;5117934;27;46480;-82
2021/12/25 14:22:43;;;;;;;;;43.75;36.50;;;;;;;;5117567;27;45744;-81
2021/12/25 14:25:19;;;;;;;;;40.25;36.25;;;;;;;;5118046;27;45297;-85
2021/12/25 14:27:44;;;;;;;;;41.50;36.25;;;;;;;;5117949;27;45381;-84
2021/12/25 14:30:12;;;;;;;;;39.33;36.33;;;;;;;;5117860;27;47942;-84
2021/12/25 14:32:37;;;;;;;;;36.75;33.75;;;;;;;;5136289;27;45757;-85
2021/12/25 14:35:13;;;;;;;;;38.00;33.75;;;;;;;;5117763;27;45520;-85
2021/12/25 14:37:38;;;;;;;;;37.00;34.00;;;;;;;;5117923;27;45583;-83
2021/12/25 14:40:10;;;;;;;;;41.00;36.00;;;;;;;;5117514;27;47095;-82
2021/12/25 14:42:38;;;;;;;;;39.50;34.00;;;;;;;;5117746;27;46057;-81
2021/12/25 14:45:04;;;;;;;;;37.00;34.00;;;;;;;;5117773;27;45495;-84
2021/12/25 14:47:29;;;;;;;;;43.25;35.25;;;;;;;;5136336;27;45365;-83
2021/12/25 14:49:54;;;;;;;;;36.33;33.33;;;;;;;;5117485;27;48298;-84
2021/12/25 14:52:20;;;;;;;;;32.67;31.33;;;;;;;;5135777;27;45314;-84
2021/12/25 14:54:45;;;;;;;;;33.25;32.00;;;;;;;;5117689;27;45359;-81
2021/12/25 14:57:40;;;;;;;;;36.00;31.00;;;;;;;;5117600;27;45353;-82
2021/12/25 15:00:05;;;;;;;;;36.25;33.00;;;;;;;;5113345;27;45492;-82
2021/12/25 15:02:31;;;;;;;;;37.50;34.00;;;;;;;;5116607;27;45457;-82
2021/12/25 15:04:58;;;;;;;;;31.00;28.75;;;;;;;;5117669;27;45413;-81
2021/12/25 15:07:23;;;;;;;;;30.50;29.75;;;;;;;;5135671;27;45457;-81
2021/12/25 15:09:50;;;;;;;;;33.67;32.33;;;;;;;;5117302;27;48265;-81
2021/12/25 15:12:17;;;;;;;;;34.25;32.50;;;;;;;;5117071;27;45848;-82
2021/12/25 15:14:46;;;;;;;;;42.75;36.25;;;;;;;;5117267;27;45483;-81
2021/12/25 15:17:13;;;;;;;;;54.00;43.25;;;;;;;;5116941;27;45582;-81
2021/12/25 15:19:40;;;;;;;;;50.00;41.50;;;;;;;;5115674;27;47267;-81
2021/12/25 15:22:11;;;;;;;;;54.25;43.50;;;;;;;;5135244;27;45577;-82
2021/12/25 15:24:36;;;;;;;;;55.00;44.75;;;;;;;;5117001;27;45426;-81
2021/12/25 15:27:03;;;;;;;;;63.00;50.00;;;;;;;;5135468;27;45345;-81
2021/12/25 15:29:36;;;;;;;;;60.50;48.75;;;;;;;;5135139;27;45530;-81
2021/12/25 15:32:09;;;;;;;;;53.25;44.25;;;;;;;;5116903;27;45746;-81
2021/12/25 15:34:35;;;;;;;;;49.75;41.25;;;;;;;;5116891;27;45740;-81
2021/12/25 15:37:01;;;;;;;;;43.75;38.75;;;;;;;;5135188;27;45221;-82